createdAt,value
2023-05-23T00:02:18.150Z,10.07
2023-05-23T00:04:45.509Z,9.70
2023-05-23T00:07:12.480Z,11.10
2023-05-23T00:09:39.422Z,12.00
2023-05-23T00:12:07.003Z,9.93
2023-05-23T00:14:35.351Z,9.63
2023-05-23T00:17:02.584Z,9.03
2023-05-23T00:19:30.927Z,8.67
2023-05-23T00:21:58.578Z,9.53
2023-05-23T00:24:25.844Z,10.90
2023-05-23T00:26:52.830Z,8.63
2023-05-23T00:29:19.954Z,8.50
2023-05-23T00:31:47.329Z,10.97
2023-05-23T00:34:15.566Z,8.77
2023-05-23T00:36:44.344Z,7.77
2023-05-23T00:39:19.370Z,7.00
2023-05-23T00:41:51.115Z,6.47
2023-05-23T00:44:20.216Z,7.03
2023-05-23T00:46:53.476Z,6.43
2023-05-23T00:49:21.304Z,5.90
2023-05-23T00:51:50.617Z,6.47
2023-05-23T00:54:24.599Z,5.90
2023-05-23T00:56:51.768Z,6.13
2023-05-23T00:59:21.187Z,6.57
2023-05-23T01:01:51.232Z,6.40
2023-05-23T01:04:21.084Z,5.93
2023-05-23T01:06:49.554Z,6.47
2023-05-23T01:09:18.754Z,6.80
2023-05-23T01:11:57.637Z,6.47
2023-05-23T01:14:35.945Z,6.37
2023-05-23T01:17:13.562Z,6.00
2023-05-23T01:20:00.387Z,6.40
2023-05-23T01:23:12.692Z,6.73
2023-05-23T01:26:03.346Z,5.23
2023-05-23T01:28:37.843Z,6.80
2023-05-23T01:31:10.130Z,6.03
2023-05-23T01:33:40.124Z,8.50
2023-05-23T01:36:09.025Z,7.07
2023-05-23T01:38:36.012Z,6.77
2023-05-23T01:41:02.994Z,6.77
2023-05-23T01:43:31.498Z,6.53
2023-05-23T01:46:01.518Z,6.73
2023-05-23T01:48:30.782Z,7.37
2023-05-23T01:50:58.929Z,7.20
2023-05-23T01:53:27.376Z,7.27
2023-05-23T01:55:55.705Z,7.13
2023-05-23T01:58:22.736Z,8.53
2023-05-23T02:00:51.098Z,7.13
2023-05-23T02:03:18.695Z,7.00
2023-05-23T02:05:45.745Z,8.27
2023-05-23T02:08:12.698Z,7.43
2023-05-23T02:10:39.727Z,8.67
2023-05-23T02:13:06.682Z,10.87
2023-05-23T02:15:33.638Z,8.33
2023-05-23T02:18:03.229Z,9.77
2023-05-23T02:20:30.284Z,10.53
2023-05-23T02:22:57.225Z,9.13
2023-05-23T02:25:24.138Z,10.07
2023-05-23T02:27:51.057Z,12.07
2023-05-23T02:30:18.018Z,11.20
2023-05-23T02:32:45.097Z,13.00
2023-05-23T02:35:13.770Z,12.03
2023-05-23T02:37:40.772Z,10.73
2023-05-23T02:40:09.232Z,13.80
2023-05-23T02:42:36.542Z,13.17
2023-05-23T02:45:04.115Z,14.07
2023-05-23T02:47:31.146Z,15.57
2023-05-23T02:49:58.047Z,14.83
2023-05-23T02:52:26.744Z,15.80
2023-05-23T02:54:53.724Z,16.43
2023-05-23T02:57:20.723Z,14.70
2023-05-23T02:59:47.670Z,14.80
2023-05-23T03:02:14.730Z,17.33
2023-05-23T03:04:41.880Z,16.83
2023-05-23T03:07:20.400Z,18.43
2023-05-23T03:09:56.158Z,21.37
2023-05-23T03:12:23.264Z,20.30
2023-05-23T03:14:50.339Z,20.53
2023-05-23T03:17:17.384Z,17.93
2023-05-23T03:19:44.443Z,19.30
2023-05-23T03:22:11.480Z,18.43
2023-05-23T03:24:38.493Z,23.00
2023-05-23T03:27:06.971Z,24.90
2023-05-23T03:29:34.065Z,23.50
2023-05-23T03:32:01.134Z,26.33
2023-05-23T03:34:28.202Z,24.27
2023-05-23T03:36:55.287Z,26.67
2023-05-23T03:39:23.397Z,26.50
2023-05-23T03:41:51.257Z,29.97
2023-05-23T03:44:19.834Z,27.57
2023-05-23T03:46:46.919Z,30.90
2023-05-23T03:49:14.072Z,28.57
2023-05-23T03:51:41.184Z,31.53
2023-05-23T03:54:08.269Z,25.80
2023-05-23T03:56:35.374Z,25.37
2023-05-23T03:59:02.381Z,24.23
2023-05-23T04:01:30.797Z,26.93
2023-05-23T04:03:58.110Z,31.60
2023-05-23T04:06:25.511Z,30.40
2023-05-23T04:08:52.567Z,24.77
2023-05-23T04:11:19.635Z,30.80
2023-05-23T04:13:47.177Z,30.00
2023-05-23T04:16:14.339Z,24.17
2023-05-23T04:18:43.518Z,23.03
2023-05-23T04:21:10.739Z,25.70
2023-05-23T04:23:38.406Z,24.23
2023-05-23T04:26:05.802Z,18.70
2023-05-23T04:28:34.227Z,20.67
2023-05-23T04:31:02.684Z,16.27
2023-05-23T04:33:30.618Z,19.53
2023-05-23T04:35:58.906Z,13.87
2023-05-23T04:38:25.850Z,14.47
2023-05-23T04:40:54.040Z,13.37
2023-05-23T04:43:21.815Z,16.10
2023-05-23T04:45:54.248Z,15.47
2023-05-23T04:48:24.025Z,13.73
2023-05-23T04:50:52.500Z,13.03
2023-05-23T04:53:20.827Z,12.67
2023-05-23T04:55:48.185Z,16.77
2023-05-23T04:58:15.426Z,16.83
2023-05-23T05:00:42.541Z,13.97
2023-05-23T05:03:09.817Z,11.43
2023-05-23T05:05:37.225Z,13.00
2023-05-23T05:08:04.326Z,10.90
2023-05-23T05:10:32.661Z,11.20
2023-05-23T05:12:59.563Z,10.20
2023-05-23T05:15:26.459Z,13.33
2023-05-23T05:17:53.711Z,11.07
2023-05-23T05:20:21.740Z,10.97
2023-05-23T05:22:57.486Z,10.50
2023-05-23T05:25:24.894Z,10.80
2023-05-23T05:27:53.538Z,15.33
2023-05-23T05:30:20.626Z,12.60
2023-05-23T05:32:47.756Z,12.20
2023-05-23T05:35:14.853Z,10.27
2023-05-23T05:37:41.876Z,13.50
2023-05-23T05:40:09.941Z,14.00
2023-05-23T05:42:36.948Z,13.17
2023-05-23T05:45:07.102Z,12.83
2023-05-23T05:47:34.047Z,15.10
2023-05-23T05:50:01.676Z,12.80
2023-05-23T05:52:28.614Z,11.30
2023-05-23T05:54:57.645Z,14.17
2023-05-23T05:57:24.719Z,13.97
2023-05-23T05:59:52.375Z,12.47
2023-05-23T06:02:20.924Z,12.70
2023-05-23T06:04:47.951Z,10.57
2023-05-23T06:07:14.879Z,16.27
2023-05-23T06:09:42.035Z,13.27
2023-05-23T06:12:09.064Z,16.70
2023-05-23T06:14:36.044Z,15.60
2023-05-23T06:17:03.750Z,15.10
2023-05-23T06:19:32.124Z,14.37
2023-05-23T06:21:59.119Z,11.87
2023-05-23T06:24:26.023Z,15.60
2023-05-23T06:26:53.036Z,11.87
2023-05-23T06:29:20.031Z,10.97
2023-05-23T06:31:47.130Z,13.63
2023-05-23T06:34:14.060Z,9.57
2023-05-23T06:36:42.937Z,9.33
2023-05-23T06:39:10.057Z,13.37
2023-05-23T06:41:37.040Z,11.73
2023-05-23T06:44:04.057Z,11.10
2023-05-23T06:46:31.490Z,16.07
2023-05-23T06:49:06.938Z,13.73
2023-05-23T06:51:42.379Z,15.63
2023-05-23T06:54:10.368Z,9.77
2023-05-23T06:56:37.262Z,12.03
2023-05-23T06:59:04.209Z,12.27
2023-05-23T07:01:31.239Z,11.17
2023-05-23T07:03:58.251Z,10.83
2023-05-23T07:06:27.413Z,11.40
2023-05-23T07:08:55.752Z,13.10
2023-05-23T07:11:23.044Z,11.90
2023-05-23T07:13:50.159Z,11.30
2023-05-23T07:16:17.219Z,14.23
2023-05-23T07:18:44.205Z,12.83
2023-05-23T07:21:11.222Z,14.70
2023-05-23T07:23:38.260Z,12.33
2023-05-23T07:26:09.566Z,5.77
2023-05-23T07:28:37.491Z,8.93
2023-05-23T07:31:04.894Z,13.63
2023-05-23T07:33:34.465Z,9.97
2023-05-23T07:36:01.592Z,13.87
2023-05-23T07:38:28.651Z,8.67
2023-05-23T07:41:09.906Z,10.50
2023-05-23T07:43:39.730Z,9.33
2023-05-23T07:46:07.134Z,6.80
2023-05-23T07:48:34.072Z,13.33
2023-05-23T07:51:01.071Z,11.90
2023-05-23T07:53:28.033Z,10.70
2023-05-23T07:55:54.967Z,11.30
2023-05-23T07:58:23.077Z,10.80
2023-05-23T08:00:52.938Z,10.13
2023-05-23T08:03:20.626Z,9.40
2023-05-23T08:05:47.806Z,8.83
2023-05-23T08:08:15.632Z,8.53
2023-05-23T08:11:01.880Z,7.03
2023-05-23T08:13:45.469Z,7.87
2023-05-23T08:16:15.189Z,5.20
2023-05-23T08:18:43.465Z,7.03
2023-05-23T08:21:11.363Z,9.07
2023-05-23T08:23:39.428Z,8.87
2023-05-23T08:26:07.616Z,6.77
2023-05-23T08:28:35.892Z,7.13
2023-05-23T08:31:04.060Z,11.20
2023-05-23T08:33:33.591Z,8.20
2023-05-23T08:36:01.176Z,13.57
2023-05-23T08:38:28.618Z,13.87
2023-05-23T08:41:16.861Z,12.90
2023-05-23T08:44:03.098Z,9.50
2023-05-23T08:46:33.987Z,9.07
2023-05-23T08:49:03.664Z,8.33
2023-05-23T08:51:43.964Z,15.20
2023-05-23T08:54:15.220Z,10.83
2023-05-23T08:56:49.797Z,17.37
2023-05-23T08:59:24.523Z,11.07
2023-05-23T09:01:56.869Z,14.17
2023-05-23T09:04:25.171Z,13.30
2023-05-23T09:06:52.314Z,9.37
2023-05-23T09:09:19.549Z,17.33
2023-05-23T09:11:47.177Z,12.53
2023-05-23T09:14:14.689Z,13.07
2023-05-23T09:16:47.672Z,11.23
2023-05-23T09:19:15.858Z,14.27
2023-05-23T09:21:45.409Z,15.40
2023-05-23T09:24:12.868Z,11.27
2023-05-23T09:26:39.846Z,12.50
2023-05-23T09:29:07.593Z,10.67
2023-05-23T09:31:34.619Z,12.77
2023-05-23T09:34:02.177Z,13.43
2023-05-23T09:36:32.478Z,11.23
2023-05-23T09:39:04.500Z,12.13
2023-05-23T09:41:33.252Z,13.20
2023-05-23T09:44:06.431Z,10.93
2023-05-23T09:46:37.449Z,11.87
2023-05-23T09:49:17.414Z,11.10
2023-05-23T09:51:57.285Z,9.23
2023-05-23T09:54:25.934Z,12.30
2023-05-23T09:56:56.161Z,10.77
2023-05-23T09:59:26.386Z,12.73
2023-05-23T10:01:57.465Z,14.03
2023-05-23T10:04:31.427Z,13.17
2023-05-23T10:07:07.875Z,9.53
2023-05-23T10:09:39.895Z,12.60
2023-05-23T10:12:45.900Z,12.33
2023-05-23T10:15:17.180Z,8.93
2023-05-23T10:18:06.374Z,12.73
2023-05-23T10:20:35.955Z,7.90
2023-05-23T10:23:05.425Z,11.30
2023-05-23T10:25:36.922Z,11.87
2023-05-23T10:28:05.459Z,11.57
2023-05-23T10:30:34.168Z,12.53
2023-05-23T10:33:03.278Z,10.23
2023-05-23T10:35:48.001Z,11.97
2023-05-23T10:38:32.828Z,11.93
2023-05-23T10:41:11.718Z,11.87
2023-05-23T10:43:48.907Z,12.77
2023-05-23T10:46:16.263Z,10.17
2023-05-23T10:48:45.261Z,12.20
2023-05-23T10:51:14.644Z,9.73
2023-05-23T10:53:43.998Z,16.27
2023-05-23T10:56:23.436Z,10.27
2023-05-23T10:58:53.989Z,17.20
2023-05-23T11:01:21.384Z,10.57
2023-05-23T11:03:55.188Z,10.77
2023-05-23T11:06:38.472Z,8.40
2023-05-23T11:09:10.888Z,14.70
2023-05-23T11:12:03.488Z,13.93
2023-05-23T11:14:54.875Z,13.93
2023-05-23T11:17:33.374Z,8.63
2023-05-23T11:20:07.686Z,11.37
2023-05-23T11:22:36.306Z,17.47
2023-05-23T11:25:08.902Z,10.70
2023-05-23T11:27:39.333Z,11.80
2023-05-23T11:30:09.912Z,14.53
2023-05-23T11:32:37.652Z,12.53
2023-05-23T11:35:08.117Z,20.00
2023-05-23T11:37:37.712Z,18.87
2023-05-23T11:40:27.805Z,16.73
2023-05-23T11:42:56.863Z,10.67
2023-05-23T11:45:24.698Z,9.17
2023-05-23T11:47:52.358Z,13.23
2023-05-23T11:50:22.722Z,13.27
2023-05-23T11:52:53.298Z,11.80
2023-05-23T11:55:21.597Z,11.73
2023-05-23T11:57:49.306Z,9.30
2023-05-23T12:00:19.465Z,14.93
2023-05-23T12:02:48.807Z,10.23
2023-05-23T12:05:16.305Z,14.00
2023-05-23T12:07:45.116Z,10.73
2023-05-23T12:10:12.947Z,11.13
2023-05-23T12:12:42.665Z,12.27
2023-05-23T12:15:11.759Z,14.37
2023-05-23T12:17:46.064Z,10.63
2023-05-23T12:20:14.103Z,11.80
2023-05-23T12:22:42.043Z,10.20
2023-05-23T12:25:12.640Z,9.57
2023-05-23T12:27:43.804Z,11.77
2023-05-23T12:30:14.686Z,10.70
2023-05-23T12:32:46.513Z,9.87
2023-05-23T12:35:15.865Z,10.97
2023-05-23T12:37:45.910Z,9.53
2023-05-23T12:40:15.802Z,13.27
2023-05-23T12:42:51.370Z,10.47
2023-05-23T12:45:18.595Z,6.83
2023-05-23T12:47:46.884Z,15.20
2023-05-23T12:50:13.917Z,14.87
2023-05-23T12:52:41.408Z,10.47
2023-05-23T12:55:09.688Z,11.47
2023-05-23T12:57:37.075Z,9.63
2023-05-23T13:00:05.491Z,9.67
2023-05-23T13:02:33.545Z,9.00
2023-05-23T13:05:01.866Z,7.97
2023-05-23T13:07:29.367Z,8.43
2023-05-23T13:09:56.975Z,7.80
2023-05-23T13:12:24.675Z,12.30
2023-05-23T13:14:52.328Z,7.67
2023-05-23T13:17:19.270Z,10.33
2023-05-23T13:19:47.082Z,13.60
2023-05-23T13:22:15.367Z,14.50
2023-05-23T13:24:43.578Z,16.03
2023-05-23T13:27:10.710Z,9.80
2023-05-23T13:29:37.713Z,11.13
2023-05-23T13:32:05.379Z,12.03
2023-05-23T13:34:32.431Z,16.93
2023-05-23T13:36:59.330Z,12.80
2023-05-23T13:39:27.705Z,10.43
2023-05-23T13:41:54.841Z,11.27
2023-05-23T13:44:21.849Z,10.73
2023-05-23T13:46:48.776Z,14.77
2023-05-23T13:49:16.090Z,12.73
2023-05-23T13:51:44.236Z,15.10
2023-05-23T13:54:11.685Z,10.80
2023-05-23T13:56:40.341Z,13.43
2023-05-23T13:59:07.355Z,7.90
2023-05-23T14:01:34.368Z,11.23
2023-05-23T14:04:01.410Z,11.03
2023-05-23T14:06:28.320Z,10.23
2023-05-23T14:08:56.225Z,12.10
2023-05-23T14:11:23.139Z,14.07
2023-05-23T14:13:51.414Z,16.67
2023-05-23T14:16:18.448Z,7.97
2023-05-23T14:18:45.430Z,10.67
2023-05-23T14:21:12.359Z,13.80
2023-05-23T14:23:39.297Z,7.47
2023-05-23T14:26:06.535Z,6.20
2023-05-23T14:28:33.582Z,7.47
2023-05-23T14:31:01.911Z,8.10
2023-05-23T14:33:28.952Z,6.73
2023-05-23T14:35:56.221Z,10.63
2023-05-23T14:38:23.339Z,7.57
2023-05-23T14:40:50.638Z,8.13
2023-05-23T14:43:17.721Z,10.60
2023-05-23T14:45:44.937Z,8.13
2023-05-23T14:48:13.566Z,12.20
2023-05-23T14:50:40.739Z,7.60
2023-05-23T14:53:07.942Z,7.50
2023-05-23T14:55:35.060Z,6.57
2023-05-23T14:58:03.421Z,12.10
2023-05-23T15:00:30.385Z,5.93
2023-05-23T15:02:57.411Z,8.27
2023-05-23T15:05:25.912Z,7.87
2023-05-23T15:07:52.901Z,7.63
2023-05-23T15:10:19.861Z,13.33
2023-05-23T15:12:46.894Z,8.33
2023-05-23T15:15:13.960Z,7.33
2023-05-23T15:17:40.960Z,12.17
2023-05-23T15:20:10.100Z,9.67
2023-05-23T15:22:39.793Z,9.50
2023-05-23T15:25:08.803Z,4.60
2023-05-23T15:27:36.149Z,5.73
2023-05-23T15:30:04.147Z,13.73
2023-05-23T15:32:32.153Z,10.60
2023-05-23T15:34:59.120Z,11.20
2023-05-23T15:37:26.010Z,8.10
2023-05-23T15:39:54.242Z,9.87
2023-05-23T15:42:21.546Z,9.03
2023-05-23T15:44:48.496Z,11.30
2023-05-23T15:47:15.510Z,11.37
2023-05-23T15:49:42.438Z,8.73
2023-05-23T15:52:09.486Z,9.97
2023-05-23T15:54:36.464Z,9.10
2023-05-23T15:57:05.688Z,11.50
2023-05-23T15:59:32.699Z,8.70
2023-05-23T16:01:59.893Z,6.97
2023-05-23T16:04:27.014Z,9.40
2023-05-23T16:06:53.917Z,8.23
2023-05-23T16:09:21.257Z,8.63
2023-05-23T16:11:48.200Z,11.40
2023-05-23T16:14:16.575Z,11.40
2023-05-23T16:16:43.649Z,10.23
2023-05-23T16:19:10.825Z,9.53
2023-05-23T16:21:37.765Z,6.47
2023-05-23T16:24:05.789Z,6.90
2023-05-23T16:26:32.957Z,9.00
2023-05-23T16:28:59.899Z,10.47
2023-05-23T16:31:30.172Z,8.90
2023-05-23T16:33:58.517Z,8.27
2023-05-23T16:36:25.466Z,8.93
2023-05-23T16:38:54.142Z,7.57
2023-05-23T16:41:22.420Z,5.43
2023-05-23T16:43:49.576Z,8.10
2023-05-23T16:46:18.438Z,7.47
2023-05-23T16:48:48.800Z,7.27
2023-05-23T16:51:16.164Z,8.77
2023-05-23T16:53:43.100Z,10.63
2023-05-23T16:56:09.996Z,9.13
2023-05-23T16:58:38.616Z,9.17
2023-05-23T17:01:07.732Z,12.40
2023-05-23T17:03:35.035Z,9.17
2023-05-23T17:06:03.573Z,6.77
2023-05-23T17:08:30.540Z,9.97
2023-05-23T17:10:57.486Z,8.23
2023-05-23T17:13:24.423Z,12.17
2023-05-23T17:15:51.615Z,10.90
2023-05-23T17:18:18.724Z,10.60
2023-05-23T17:20:46.056Z,13.67
2023-05-23T17:23:14.422Z,11.17
2023-05-23T17:25:41.622Z,11.03
2023-05-23T17:28:08.747Z,12.87
2023-05-23T17:30:35.638Z,10.70
2023-05-23T17:33:02.744Z,12.13
2023-05-23T17:35:29.664Z,8.67
2023-05-23T17:38:00.613Z,10.47
2023-05-23T17:40:29.020Z,10.60
2023-05-23T17:42:55.969Z,11.10
2023-05-23T17:45:23.178Z,10.47
2023-05-23T17:47:50.103Z,11.40
2023-05-23T17:50:17.303Z,11.57
2023-05-23T17:52:44.785Z,19.30
2023-05-23T17:55:11.864Z,12.60
2023-05-23T17:57:40.324Z,13.73
2023-05-23T18:00:08.973Z,13.97
2023-05-23T18:02:35.920Z,9.90
2023-05-23T18:05:02.897Z,12.97
2023-05-23T18:07:29.939Z,10.10
2023-05-23T18:09:59.828Z,11.43
2023-05-23T18:12:26.975Z,9.07
2023-05-23T18:14:55.208Z,12.33
2023-05-23T18:17:22.697Z,16.23
2023-05-23T18:19:49.758Z,8.03
2023-05-23T18:22:16.832Z,12.57
2023-05-23T18:24:43.832Z,9.90
2023-05-23T18:27:11.066Z,11.60
2023-05-23T18:29:38.200Z,13.57
2023-05-23T18:32:07.128Z,12.17
2023-05-23T18:34:34.114Z,12.03
2023-05-23T18:37:02.983Z,9.70
2023-05-23T18:39:31.044Z,11.60
2023-05-23T18:41:58.691Z,9.17
2023-05-23T18:44:25.745Z,12.93
2023-05-23T18:46:52.798Z,9.50
2023-05-23T18:49:21.914Z,8.83
2023-05-23T18:51:51.582Z,10.73
2023-05-23T18:54:18.574Z,11.43
2023-05-23T18:56:45.552Z,10.73
2023-05-23T18:59:14.500Z,13.37
2023-05-23T19:01:41.446Z,11.33
2023-05-23T19:04:08.618Z,9.47
2023-05-23T19:06:37.216Z,7.27
2023-05-23T19:09:09.339Z,6.37
2023-05-23T19:11:37.232Z,11.70
2023-05-23T19:14:04.269Z,10.17
2023-05-23T19:16:31.472Z,14.43
2023-05-23T19:18:58.520Z,10.97
2023-05-23T19:21:26.565Z,9.50
2023-05-23T19:23:55.264Z,8.40
2023-05-23T19:26:22.272Z,13.20
2023-05-23T19:28:49.271Z,10.60
2023-05-23T19:31:16.318Z,12.90
2023-05-23T19:33:43.365Z,8.30
2023-05-23T19:36:10.406Z,9.83
2023-05-23T19:38:37.445Z,12.17
2023-05-23T19:41:06.252Z,12.97
2023-05-23T19:43:33.236Z,9.97
2023-05-23T19:46:00.364Z,13.13
2023-05-23T19:48:27.449Z,9.47
2023-05-23T19:50:54.480Z,10.93
2023-05-23T19:53:22.879Z,11.00
2023-05-23T19:55:49.954Z,8.30
2023-05-23T19:58:18.480Z,10.03
2023-05-23T20:00:45.473Z,9.63
2023-05-23T20:03:12.620Z,12.83
2023-05-23T20:05:39.785Z,9.43
2023-05-23T20:08:06.923Z,14.63
2023-05-23T20:10:33.959Z,8.97
2023-05-23T20:13:00.957Z,17.47
2023-05-23T20:15:39.443Z,14.30
2023-05-23T20:18:07.895Z,15.30
2023-05-23T20:20:34.952Z,13.20
2023-05-23T20:23:01.939Z,16.20
2023-05-23T20:25:29.064Z,15.93
2023-05-23T20:27:58.763Z,7.73
2023-05-23T20:30:26.249Z,11.73
2023-05-23T20:32:54.754Z,13.87
2023-05-23T20:35:22.787Z,11.67
2023-05-23T20:37:53.457Z,13.63
2023-05-23T20:40:22.105Z,13.13
2023-05-23T20:42:49.732Z,16.43
2023-05-23T20:45:16.806Z,15.40
2023-05-23T20:47:43.844Z,15.20
2023-05-23T20:50:15.853Z,18.63
2023-05-23T20:52:43.485Z,15.70
2023-05-23T20:55:10.893Z,10.70
2023-05-23T20:57:38.203Z,13.23
2023-05-23T21:00:10.858Z,12.47
2023-05-23T21:02:38.331Z,13.03
2023-05-23T21:05:06.677Z,14.43
2023-05-23T21:07:35.558Z,13.97
2023-05-23T21:10:03.331Z,15.67
2023-05-23T21:12:30.720Z,17.27
2023-05-23T21:14:57.636Z,16.87
2023-05-23T21:17:24.672Z,12.50
2023-05-23T21:19:51.790Z,14.63
2023-05-23T21:22:18.697Z,13.60
2023-05-23T21:24:46.984Z,14.60
2023-05-23T21:27:13.988Z,12.07
2023-05-23T21:29:40.879Z,13.30
2023-05-23T21:32:07.856Z,20.43
2023-05-23T21:34:34.823Z,15.40
2023-05-23T21:37:01.728Z,11.83
2023-05-23T21:39:39.217Z,16.43
2023-05-23T21:42:15.706Z,10.00
2023-05-23T21:44:42.664Z,13.20
2023-05-23T21:47:09.586Z,18.30
2023-05-23T21:49:37.831Z,11.10
2023-05-23T21:52:05.155Z,13.17
2023-05-23T21:54:32.333Z,13.37
2023-05-23T21:56:59.350Z,16.00
2023-05-23T21:59:27.637Z,12.17
2023-05-23T22:01:54.620Z,13.47
2023-05-23T22:04:21.711Z,17.50
2023-05-23T22:06:48.683Z,14.90
2023-05-23T22:09:15.678Z,10.23
2023-05-23T22:11:43.118Z,16.00
2023-05-23T22:14:10.618Z,10.83
2023-05-23T22:16:39.375Z,13.43
2023-05-23T22:19:07.109Z,12.50
2023-05-23T22:21:34.182Z,17.47
2023-05-23T22:24:01.417Z,11.40
2023-05-23T22:26:28.934Z,17.57
2023-05-23T22:28:56.047Z,18.00
2023-05-23T22:31:23.877Z,15.33
2023-05-23T22:33:52.517Z,15.57
2023-05-23T22:36:19.502Z,16.70
2023-05-23T22:38:46.482Z,16.80
2023-05-23T22:41:14.715Z,15.40
2023-05-23T22:43:41.754Z,17.47
2023-05-23T22:46:08.836Z,19.37
2023-05-23T22:48:35.763Z,13.60
2023-05-23T22:51:05.529Z,15.60
2023-05-23T22:53:32.497Z,13.83
2023-05-23T22:55:59.456Z,18.37
2023-05-23T22:58:26.756Z,17.73
2023-05-23T23:00:53.731Z,17.27
2023-05-23T23:03:20.936Z,12.77
2023-05-23T23:05:48.106Z,18.07
2023-05-23T23:08:16.562Z,17.90
2023-05-23T23:10:44.491Z,18.60
2023-05-23T23:13:13.943Z,16.13
2023-05-23T23:15:42.712Z,16.73
2023-05-23T23:18:09.873Z,14.80
2023-05-23T23:20:38.550Z,14.97
2023-05-23T23:23:05.915Z,18.43
2023-05-23T23:25:36.139Z,15.67
2023-05-23T23:28:03.145Z,15.00
2023-05-23T23:30:30.109Z,16.07
2023-05-23T23:32:57.096Z,14.40
2023-05-23T23:35:24.137Z,10.87
2023-05-23T23:37:51.111Z,19.37
2023-05-23T23:40:18.137Z,15.67
2023-05-23T23:42:46.401Z,15.77
2023-05-23T23:45:13.425Z,17.27
2023-05-23T23:47:41.504Z,15.77
2023-05-23T23:50:09.273Z,16.17
2023-05-23T23:52:38.905Z,16.83
2023-05-23T23:55:06.910Z,20.90
2023-05-23T23:57:33.871Z,18.43
